Time,TemperatureF,DewpointF,PressureIn,WindDirection,WindDirectionDegrees,WindSpeedMPH,WindSpeedGustMPH,Humidity,HourlyPrecipIn,Conditions,Clouds,dailyrainin,SoftwareType,DateUTC
2013-05-08 00:00:00,60.6,54.7,30.12,SE,125,1.0,1.0,81,0.00,,,0.00,Wunderground v.1.15,2013-05-08 04:00:00,
2013-05-08 00:05:00,60.6,54.7,30.12,East,95,0.0,1.0,81,0.00,,,0.00,Wunderground v.1.15,2013-05-08 04:05:00,
2013-05-08 00:10:00,60.5,54.6,30.12,East,96,0.0,0.0,81,0.00,,,0.00,Wunderground v.1.15,2013-05-08 04:10:00,
2013-05-08 00:15:00,60.4,54.5,30.12,SSE,150,0.0,0.0,81,0.00,,,0.00,Wunderground v.1.15,2013-05-08 04:15:00,
2013-05-08 00:25:00,60.1,54.6,30.12,South,175,1.0,1.0,82,0.00,,,0.00,Wunderground v.1.15,2013-05-08 04:25:00,
2013-05-08 00:30:00,60.0,54.8,30.12,ESE,123,0.0,0.0,83,0.00,,,0.00,Wunderground v.1.15,2013-05-08 04:30:00,
2013-05-08 00:35:00,59.9,54.7,30.11,ESE,120,0.0,0.0,83,0.00,,,0.00,Wunderground v.1.15,2013-05-08 04:35:00,
2013-05-08 00:40:00,59.7,54.5,30.12,SSE,155,0.0,0.0,83,0.00,,,0.00,Wunderground v.1.15,2013-05-08 04:40:00,
2013-05-08 00:45:00,59.6,54.8,30.11,SSE,155,0.0,0.0,84,0.00,,,0.00,Wunderground v.1.15,2013-05-08 04:45:00,
2013-05-08 00:50:00,59.4,54.6,30.11,SSE,155,0.0,0.0,84,0.00,,,0.00,Wunderground v.1.15,2013-05-08 04:50:00,
2013-05-08 00:55:00,59.2,54.4,30.11,SSE,155,0.0,0.0,84,0.00,,,0.00,Wunderground v.1.15,2013-05-08 04:55:00,
2013-05-08 01:05:00,58.7,54.2,30.11,SSE,153,0.0,0.0,85,0.00,,,0.00,Wunderground v.1.15,2013-05-08 05:05:00,
2013-05-08 01:10:00,58.6,54.4,30.11,SE,145,0.0,0.0,86,0.00,,,0.00,Wunderground v.1.15,2013-05-08 05:10:00,
2013-05-08 01:15:00,58.6,54.4,30.11,SE,133,0.0,0.0,86,0.00,,,0.00,Wunderground v.1.15,2013-05-08 05:15:00,
2013-05-08 01:20:00,58.5,54.3,30.10,SE,134,0.0,0.0,86,0.00,,,0.00,Wunderground v.1.15,2013-05-08 05:20:00,
2013-05-08 01:25:00,58.5,54.6,30.10,SE,134,0.0,0.0,87,0.00,,,0.00,Wunderground v.1.15,2013-05-08 05:25:00,
2013-05-08 01:30:00,58.4,54.5,30.10,SE,134,0.0,0.0,87,0.00,,,0.00,Wunderground v.1.15,2013-05-08 05:30:00,
2013-05-08 01:35:00,58.4,54.5,30.10,SE,134,0.0,0.0,87,0.00,,,0.00,Wunderground v.1.15,2013-05-08 05:35:00,
2013-05-08 01:45:00,58.4,54.5,30.09,SE,134,0.0,0.0,87,0.00,,,0.00,Wunderground v.1.15,2013-05-08 05:45:00,
2013-05-08 01:50:00,58.3,54.4,30.09,SE,134,0.0,0.0,87,0.00,,,0.00,Wunderground v.1.15,2013-05-08 05:50:00,
2013-05-08 01:55:00,58.2,54.3,30.09,SE,134,0.0,0.0,87,0.00,,,0.00,Wunderground v.1.15,2013-05-08 05:55:00,
2013-05-08 02:00:00,58.2,54.3,30.09,SE,134,0.0,0.0,87,0.00,,,0.00,Wunderground v.1.15,2013-05-08 06:00:00,
2013-05-08 02:05:00,58.1,54.2,30.09,SE,134,0.0,0.0,87,0.00,,,0.00,Wunderground v.1.15,2013-05-08 06:05:00,
2013-05-08 02:10:00,58.0,54.5,30.09,SE,134,0.0,0.0,88,0.00,,,0.00,Wunderground v.1.15,2013-05-08 06:10:00,
2013-05-08 02:20:00,57.7,54.2,30.09,SE,134,0.0,0.0,88,0.00,,,0.00,Wunderground v.1.15,2013-05-08 06:20:00,
2013-05-08 02:25:00,57.6,54.1,30.09,SE,134,0.0,0.0,88,0.00,,,0.00,Wunderground v.1.15,2013-05-08 06:25:00,
2013-05-08 02:30:00,57.5,54.0,30.09,SE,134,0.0,0.0,88,0.00,,,0.00,Wunderground v.1.15,2013-05-08 06:30:00,
2013-05-08 02:35:00,57.3,53.8,30.08,SE,134,0.0,0.0,88,0.00,,,0.00,Wunderground v.1.15,2013-05-08 06:35:00,
2013-05-08 02:40:00,57.2,53.7,30.09,SE,134,0.0,0.0,88,0.00,,,0.00,Wunderground v.1.15,2013-05-08 06:40:00,
2013-05-08 02:45:00,57.1,53.9,30.09,SE,134,0.0,0.0,89,0.00,,,0.00,Wunderground v.1.15,2013-05-08 06:45:00,
2013-05-08 02:50:00,56.9,53.7,30.09,SE,134,0.0,0.0,89,0.00,,,0.00,Wunderground v.1.15,2013-05-08 06:50:00,
2013-05-08 03:00:00,56.7,53.8,30.10,SE,134,0.0,0.0,90,0.00,,,0.00,Wunderground v.1.15,2013-05-08 07:00:00,
2013-05-08 03:05:00,56.6,53.7,30.10,SE,134,0.0,0.0,90,0.00,,,0.00,Wunderground v.1.15,2013-05-08 07:05:00,
2013-05-08 03:10:00,56.6,53.7,30.10,SE,134,0.0,0.0,90,0.00,,,0.00,Wunderground v.1.15,2013-05-08 07:10:00,
2013-05-08 03:15:00,56.5,53.9,30.10,SE,134,0.0,0.0,91,0.00,,,0.00,Wunderground v.1.15,2013-05-08 07:15:00,
2013-05-08 03:20:00,56.4,53.8,30.10,SE,134,0.0,0.0,91,0.00,,,0.00,Wunderground v.1.15,2013-05-08 07:20:00,
2013-05-08 03:25:00,56.4,53.8,30.10,SE,134,0.0,0.0,91,0.00,,,0.00,Wunderground v.1.15,2013-05-08 07:25:00,
2013-05-08 03:30:00,56.2,53.6,30.09,SE,134,0.0,0.0,91,0.00,,,0.00,Wunderground v.1.15,2013-05-08 07:30:00,
2013-05-08 03:35:00,56.1,53.5,30.09,SE,134,0.0,0.0,91,0.00,,,0.00,Wunderground v.1.15,2013-05-08 07:35:00,
2013-05-08 03:45:00,55.9,53.3,30.09,SE,134,0.0,0.0,91,0.00,,,0.00,Wunderground v.1.15,2013-05-08 07:45:00,
2013-05-08 03:50:00,55.8,53.2,30.09,SE,134,0.0,0.0,91,0.00,,,0.00,Wunderground v.1.15,2013-05-08 07:50:00,
2013-05-08 03:55:00,55.7,53.4,30.09,SE,134,0.0,0.0,92,0.00,,,0.00,Wunderground v.1.15,2013-05-08 07:55:00,
2013-05-08 04:00:00,55.6,53.3,30.09,SE,134,0.0,0.0,92,0.00,,,0.00,Wunderground v.1.15,2013-05-08 08:00:00,
2013-05-08 04:05:00,55.5,53.2,30.09,SE,134,0.0,0.0,92,0.00,,,0.00,Wunderground v.1.15,2013-05-08 08:05:00,
2013-05-08 04:10:00,55.4,53.1,30.09,SE,134,0.0,0.0,92,0.00,,,0.00,Wunderground v.1.15,2013-05-08 08:10:00,
2013-05-08 04:20:00,55.2,52.9,30.09,SE,134,0.0,0.0,92,0.00,,,0.00,Wunderground v.1.15,2013-05-08 08:20:00,
2013-05-08 04:25:00,55.2,53.2,30.09,SE,134,0.0,0.0,93,0.00,,,0.00,Wunderground v.1.15,2013-05-08 08:25:00,
2013-05-08 04:30:00,55.1,53.1,30.09,SE,134,0.0,0.0,93,0.00,,,0.00,Wunderground v.1.15,2013-05-08 08:30:00,
2013-05-08 04:35:00,55.0,52.7,30.09,SE,134,0.0,0.0,92,0.00,,,0.00,Wunderground v.1.15,2013-05-08 08:35:00,
2013-05-08 04:45:00,54.8,52.8,30.09,SE,134,0.0,0.0,93,0.00,,,0.00,Wunderground v.1.15,2013-05-08 08:45:00,
2013-05-08 04:50:00,54.8,52.8,30.09,SE,134,0.0,0.0,93,0.00,,,0.00,Wunderground v.1.15,2013-05-08 08:50:00,
2013-05-08 04:55:00,54.9,53.2,30.09,SE,134,0.0,0.0,94,0.00,,,0.00,Wunderground v.1.15,2013-05-08 08:55:00,
2013-05-08 05:00:00,55.0,53.3,30.09,SE,134,0.0,0.0,94,0.00,,,0.00,Wunderground v.1.15,2013-05-08 09:00:00,
2013-05-08 05:05:00,55.1,53.4,30.09,SE,134,0.0,0.0,94,0.00,,,0.00,Wunderground v.1.15,2013-05-08 09:05:00,
2013-05-08 05:10:00,55.3,53.6,30.09,SE,134,0.0,0.0,94,0.00,,,0.00,Wunderground v.1.15,2013-05-08 09:10:00,
2013-05-08 05:20:00,55.5,53.8,30.09,SE,134,0.0,0.0,94,0.00,,,0.00,Wunderground v.1.15,2013-05-08 09:20:00,
2013-05-08 05:30:00,55.4,53.7,30.09,SE,134,0.0,0.0,94,0.00,,,0.00,Wunderground v.1.15,2013-05-08 09:30:00,
2013-05-08 05:35:00,55.2,53.2,30.09,SE,134,0.0,0.0,93,0.00,,,0.00,Wunderground v.1.15,2013-05-08 09:35:00,
2013-05-08 05:40:00,55.0,53.0,30.09,SE,134,0.0,0.0,93,0.00,,,0.00,Wunderground v.1.15,2013-05-08 09:40:00,
2013-05-08 05:45:00,54.8,52.8,30.09,SE,134,0.0,0.0,93,0.00,,,0.00,Wunderground v.1.15,2013-05-08 09:45:00,
2013-05-08 05:50:00,54.8,53.1,30.09,SE,134,0.0,0.0,94,0.00,,,0.00,Wunderground v.1.15,2013-05-08 09:50:00,
2013-05-08 05:55:00,54.9,53.2,30.09,SE,134,0.0,0.0,94,0.00,,,0.00,Wunderground v.1.15,2013-05-08 09:55:00,
2013-05-08 06:05:00,54.8,53.1,30.09,SE,134,0.0,0.0,94,0.00,,,0.00,Wunderground v.1.15,2013-05-08 10:05:00,
2013-05-08 06:10:00,54.8,53.1,30.09,SE,134,0.0,0.0,94,0.00,,,0.00,Wunderground v.1.15,2013-05-08 10:10:00,
2013-05-08 06:15:00,54.8,53.1,30.10,SE,134,0.0,0.0,94,0.00,,,0.00,Wunderground v.1.15,2013-05-08 10:15:00,
2013-05-08 06:20:00,55.0,53.3,30.10,SE,134,0.0,0.0,94,0.00,,,0.00,Wunderground v.1.15,2013-05-08 10:20:00,
2013-05-08 06:25:00,55.2,53.5,30.10,SE,134,0.0,0.0,94,0.00,,,0.00,Wunderground v.1.15,2013-05-08 10:25:00,
2013-05-08 06:30:00,55.9,54.2,30.10,SE,134,0.0,0.0,94,0.00,,,0.00,Wunderground v.1.15,2013-05-08 10:30:00,
2013-05-08 06:35:00,56.0,54.0,30.10,SE,134,0.0,0.0,93,0.00,,,0.00,Wunderground v.1.15,2013-05-08 10:35:00,
2013-05-08 06:45:00,56.1,54.7,30.11,SE,134,0.0,0.0,95,0.00,,,0.00,Wunderground v.1.15,2013-05-08 10:45:00,
2013-05-08 06:50:00,56.5,55.1,30.11,SE,134,0.0,0.0,95,0.00,,,0.00,Wunderground v.1.15,2013-05-08 10:50:00,
2013-05-08 06:55:00,56.8,55.4,30.11,SE,134,0.0,0.0,95,0.00,,,0.00,Wunderground v.1.15,2013-05-08 10:55:00,
2013-05-08 07:00:00,56.9,55.5,30.11,SE,134,0.0,0.0,95,0.00,,,0.00,Wunderground v.1.15,2013-05-08 11:00:00,
2013-05-08 07:05:00,57.2,55.8,30.11,SE,134,0.0,0.0,95,0.00,,,0.00,Wunderground v.1.15,2013-05-08 11:05:00,
2013-05-08 07:10:00,57.5,56.1,30.12,SE,134,0.0,0.0,95,0.00,,,0.00,Wunderground v.1.15,2013-05-08 11:10:00,
2013-05-08 07:20:00,58.0,56.3,30.12,SE,134,0.0,0.0,94,0.00,,,0.00,Wunderground v.1.15,2013-05-08 11:20:00,
2013-05-08 07:25:00,58.2,56.2,30.12,SE,134,0.0,0.0,93,0.00,,,0.00,Wunderground v.1.15,2013-05-08 11:25:00,
2013-05-08 07:30:00,58.5,56.5,30.12,SE,134,0.0,0.0,93,0.00,,,0.00,Wunderground v.1.15,2013-05-08 11:30:00,
2013-05-08 07:35:00,58.8,56.5,30.12,SE,132,0.0,0.0,92,0.00,,,0.00,Wunderground v.1.15,2013-05-08 11:35:00,
2013-05-08 07:40:00,59.2,56.9,30.12,SE,132,0.0,0.0,92,0.00,,,0.00,Wunderground v.1.15,2013-05-08 11:40:00,
2013-05-08 07:45:00,59.6,56.7,30.12,SE,132,0.0,0.0,90,0.00,,,0.00,Wunderground v.1.15,2013-05-08 11:45:00,
2013-05-08 07:55:00,60.4,57.1,30.13,SE,132,0.0,0.0,89,0.00,,,0.00,Wunderground v.1.15,2013-05-08 11:55:00,
2013-05-08 08:00:00,60.9,57.3,30.12,East,92,0.0,1.0,88,0.00,,,0.00,Wunderground v.1.15,2013-05-08 12:00:00,
2013-05-08 08:05:00,61.3,57.4,30.12,East,93,0.0,1.0,87,0.00,,,0.00,Wunderground v.1.15,2013-05-08 12:05:00,
2013-05-08 08:10:00,61.8,57.9,30.12,East,93,0.0,0.0,87,0.00,,,0.00,Wunderground v.1.15,2013-05-08 12:10:00,
2013-05-08 08:15:00,62.3,58.1,30.12,East,94,0.0,0.0,86,0.00,,,0.00,Wunderground v.1.15,2013-05-08 12:15:00,
2013-05-08 08:20:00,62.7,58.1,30.12,NE,55,0.0,1.0,85,0.00,,,0.00,Wunderground v.1.15,2013-05-08 12:20:00,
2013-05-08 08:25:00,63.0,57.8,30.12,SSE,152,0.0,1.0,83,0.00,,,0.00,Wunderground v.1.15,2013-05-08 12:25:00,
2013-05-08 08:35:00,63.0,57.4,30.12,SE,139,0.0,1.0,82,0.00,,,0.00,Wunderground v.1.15,2013-05-08 12:35:00,
2013-05-08 08:40:00,63.3,57.7,30.12,SSE,153,0.0,1.0,82,0.00,,,0.00,Wunderground v.1.15,2013-05-08 12:40:00,
2013-05-08 08:45:00,63.3,58.0,30.12,SSE,151,0.0,1.0,83,0.00,,,0.00,Wunderground v.1.15,2013-05-08 12:45:00,
2013-05-08 08:50:00,63.5,58.2,30.11,ESE,109,0.0,0.0,83,0.00,,,0.00,Wunderground v.1.15,2013-05-08 12:50:00,
2013-05-08 08:55:00,63.7,58.1,30.12,ESE,109,0.0,0.0,82,0.00,,,0.00,Wunderground v.1.15,2013-05-08 12:55:00,
2013-05-08 09:05:00,64.0,58.7,30.12,SE,142,0.0,0.0,83,0.00,,,0.00,Wunderground v.1.15,2013-05-08 13:05:00,
2013-05-08 09:10:00,63.9,58.3,30.12,SE,144,0.0,1.0,82,0.00,,,0.00,Wunderground v.1.15,2013-05-08 13:10:00,
2013-05-08 09:15:00,63.9,59.0,30.12,SSE,155,0.0,1.0,84,0.00,,,0.00,Wunderground v.1.15,2013-05-08 13:15:00,
2013-05-08 09:20:00,64.1,58.8,30.11,SE,135,0.0,0.0,83,0.00,,,0.00,Wunderground v.1.15,2013-05-08 13:20:00,
2013-05-08 09:25:00,64.1,58.1,30.11,SSE,166,0.0,0.0,81,0.00,,,0.00,Wunderground v.1.15,2013-05-08 13:25:00,
2013-05-08 09:30:00,63.9,58.3,30.12,SSE,163,1.0,1.0,82,0.00,,,0.00,Wunderground v.1.15,2013-05-08 13:30:00,
2013-05-08 09:35:00,63.8,58.2,30.12,South,183,0.0,1.0,82,0.00,,,0.00,Wunderground v.1.15,2013-05-08 13:35:00,
2013-05-08 09:45:00,63.7,58.1,30.12,SE,136,0.0,0.0,82,0.00,,,0.00,Wunderground v.1.15,2013-05-08 13:45:00,
2013-05-08 09:50:00,63.7,58.4,30.12,SE,136,0.0,0.0,83,0.00,,,0.00,Wunderground v.1.15,2013-05-08 13:50:00,
2013-05-08 09:55:00,63.8,57.9,30.12,ENE,61,0.0,0.0,81,0.00,,,0.00,Wunderground v.1.15,2013-05-08 13:55:00,
2013-05-08 10:00:00,63.9,58.6,30.12,ENE,61,0.0,0.0,83,0.00,,,0.00,Wunderground v.1.15,2013-05-08 14:00:00,
2013-05-08 10:05:00,64.0,58.4,30.12,East,98,0.0,0.0,82,0.00,,,0.00,Wunderground v.1.15,2013-05-08 14:05:00,
2013-05-08 10:10:00,64.2,58.6,30.12,East,98,0.0,0.0,82,0.00,,,0.00,Wunderground v.1.15,2013-05-08 14:10:00,
2013-05-08 10:15:00,64.1,58.5,30.12,SSE,148,0.0,0.0,82,0.00,,,0.00,Wunderground v.1.15,2013-05-08 14:15:00,
2013-05-08 10:25:00,64.3,59.4,30.12,SSE,148,0.0,0.0,84,0.00,,,0.00,Wunderground v.1.15,2013-05-08 14:25:00,
2013-05-08 10:30:00,64.4,59.1,30.12,SSE,148,0.0,0.0,83,0.00,,,0.00,Wunderground v.1.15,2013-05-08 14:30:00,
2013-05-08 10:35:00,64.6,59.0,30.12,SSE,148,0.0,0.0,82,0.00,,,0.00,Wunderground v.1.15,2013-05-08 14:35:00,
2013-05-08 10:40:00,64.8,58.8,30.11,East,98,0.0,0.0,81,0.00,,,0.00,Wunderground v.1.15,2013-05-08 14:40:00,
2013-05-08 10:45:00,64.9,58.6,30.11,NE,45,0.0,0.0,80,0.00,,,0.00,Wunderground v.1.15,2013-05-08 14:45:00,
2013-05-08 10:50:00,65.0,59.7,30.11,NE,46,0.0,1.0,83,0.00,,,0.00,Wunderground v.1.15,2013-05-08 14:50:00,
2013-05-08 11:00:00,65.3,59.3,30.11,NE,46,0.0,0.0,81,0.00,,,0.00,Wunderground v.1.15,2013-05-08 15:00:00,
2013-05-08 11:05:00,65.3,59.7,30.11,ESE,122,0.0,0.0,82,0.00,,,0.00,Wunderground v.1.15,2013-05-08 15:05:00,
2013-05-08 11:10:00,65.1,59.8,30.11,SSE,154,0.0,2.0,83,0.00,,,0.00,Wunderground v.1.15,2013-05-08 15:10:00,
2013-05-08 11:15:00,64.8,59.9,30.11,ESE,123,0.0,2.0,84,0.00,,,0.00,Wunderground v.1.15,2013-05-08 15:15:00,
2013-05-08 11:20:00,64.7,60.4,30.10,ESE,123,0.0,0.0,86,0.00,,,0.01,Wunderground v.1.15,2013-05-08 15:20:00,
2013-05-08 11:25:00,64.7,60.7,30.11,ESE,123,0.0,0.0,87,0.00,,,0.01,Wunderground v.1.15,2013-05-08 15:25:00,
2013-05-08 11:30:00,64.6,61.0,30.11,ESE,123,0.0,0.0,88,0.00,,,0.01,Wunderground v.1.15,2013-05-08 15:30:00,
2013-05-08 11:40:00,64.4,60.8,30.10,ESE,123,0.0,0.0,88,0.00,,,0.01,Wunderground v.1.15,2013-05-08 15:40:00,
2013-05-08 11:45:00,64.3,60.3,30.10,ESE,123,0.0,0.0,87,0.00,,,0.01,Wunderground v.1.15,2013-05-08 15:45:00,
2013-05-08 11:50:00,64.2,60.6,30.10,ESE,123,0.0,0.0,88,0.00,,,0.02,Wunderground v.1.15,2013-05-08 15:50:00,
2013-05-08 11:55:00,64.2,60.9,30.10,ESE,123,0.0,0.0,89,0.00,,,0.02,Wunderground v.1.15,2013-05-08 15:55:00,
2013-05-08 12:00:00,64.2,60.9,30.10,ESE,123,0.0,0.0,89,0.00,,,0.02,Wunderground v.1.15,2013-05-08 16:00:00,
2013-05-08 12:05:00,64.1,60.8,30.09,ESE,123,0.0,0.0,89,0.00,,,0.02,Wunderground v.1.15,2013-05-08 16:05:00,
2013-05-08 12:10:00,64.0,60.7,30.09,ESE,123,0.0,0.0,89,0.00,,,0.02,Wunderground v.1.15,2013-05-08 16:10:00,
2013-05-08 12:15:00,64.3,61.3,30.08,ESE,123,0.0,0.0,90,0.00,,,0.02,Wunderground v.1.15,2013-05-08 16:15:00,
2013-05-08 12:25:00,64.6,60.6,30.08,SE,125,0.0,0.0,87,0.00,,,0.02,Wunderground v.1.15,2013-05-08 16:25:00,
2013-05-08 12:30:00,64.8,61.2,30.07,SE,125,0.0,0.0,88,0.00,,,0.02,Wunderground v.1.15,2013-05-08 16:30:00,
2013-05-08 12:35:00,65.0,61.4,30.07,SE,125,0.0,0.0,88,0.00,,,0.02,Wunderground v.1.15,2013-05-08 16:35:00,
2013-05-08 12:40:00,65.4,61.8,30.07,SE,125,0.0,0.0,88,0.00,,,0.02,Wunderground v.1.15,2013-05-08 16:40:00,
2013-05-08 12:45:00,65.8,61.8,30.07,SE,125,0.0,0.0,87,0.00,,,0.02,Wunderground v.1.15,2013-05-08 16:45:00,
2013-05-08 12:50:00,66.4,62.1,30.06,SE,145,0.0,0.0,86,0.00,,,0.02,Wunderground v.1.15,2013-05-08 16:50:00,
2013-05-08 12:55:00,66.8,61.8,30.06,East,94,0.0,2.0,84,0.00,,,0.02,Wunderground v.1.15,2013-05-08 16:55:00,
2013-05-08 13:05:00,67.8,62.4,30.06,South,174,0.0,0.0,83,0.00,,,0.02,Wunderground v.1.15,2013-05-08 17:05:00,
2013-05-08 13:10:00,68.0,62.3,30.06,ESE,110,0.0,0.0,82,0.00,,,0.02,Wunderground v.1.15,2013-05-08 17:10:00,
2013-05-08 13:15:00,68.0,61.9,30.05,ESE,110,0.0,0.0,81,0.00,,,0.02,Wunderground v.1.15,2013-05-08 17:15:00,
2013-05-08 13:20:00,67.9,61.9,30.05,East,86,0.0,0.0,81,0.00,,,0.02,Wunderground v.1.15,2013-05-08 17:20:00,
2013-05-08 13:25:00,67.7,62.0,30.06,ESE,108,0.0,0.0,82,0.00,,,0.02,Wunderground v.1.15,2013-05-08 17:25:00,
2013-05-08 13:30:00,67.4,61.7,30.05,ESE,110,0.0,0.0,82,0.00,,,0.02,Wunderground v.1.15,2013-05-08 17:30:00,
2013-05-08 13:40:00,66.8,62.1,30.05,ESE,122,0.0,0.0,85,0.00,,,0.03,Wunderground v.1.15,2013-05-08 17:40:00,
2013-05-08 13:45:00,66.8,62.8,30.05,SE,133,0.0,0.0,87,0.00,,,0.03,Wunderground v.1.15,2013-05-08 17:45:00,
2013-05-08 13:50:00,66.7,62.0,30.05,SE,133,0.0,0.0,85,0.00,,,0.03,Wunderground v.1.15,2013-05-08 17:50:00,
2013-05-08 13:55:00,66.6,61.9,30.05,SE,127,0.0,0.0,85,0.00,,,0.03,Wunderground v.1.15,2013-05-08 17:55:00,
2013-05-08 14:00:00,66.5,61.8,30.05,ESE,111,0.0,0.0,85,0.00,,,0.03,Wunderground v.1.15,2013-05-08 18:00:00,
2013-05-08 14:05:00,66.7,62.4,30.05,ESE,111,0.0,0.0,86,0.00,,,0.03,Wunderground v.1.15,2013-05-08 18:05:00,
2013-05-08 14:10:00,66.6,61.6,30.05,East,101,0.0,0.0,84,0.00,,,0.03,Wunderground v.1.15,2013-05-08 18:10:00,
2013-05-08 14:20:00,66.3,61.7,30.05,SE,135,0.0,0.0,85,0.00,,,0.03,Wunderground v.1.15,2013-05-08 18:20:00,
2013-05-08 14:25:00,66.3,62.0,30.05,SE,135,0.0,0.0,86,0.00,,,0.03,Wunderground v.1.15,2013-05-08 18:25:00,
2013-05-08 14:30:00,66.3,62.3,30.04,SE,135,0.0,0.0,87,0.00,,,0.03,Wunderground v.1.15,2013-05-08 18:30:00,
2013-05-08 14:35:00,66.2,61.9,30.04,SE,135,0.0,0.0,86,0.00,,,0.03,Wunderground v.1.15,2013-05-08 18:35:00,
2013-05-08 14:40:00,66.1,61.8,30.04,SE,135,0.0,0.0,86,0.00,,,0.03,Wunderground v.1.15,2013-05-08 18:40:00,
2013-05-08 14:45:00,65.9,61.9,30.03,SE,135,0.0,0.0,87,0.00,,,0.03,Wunderground v.1.15,2013-05-08 18:45:00,
2013-05-08 14:55:00,65.5,61.2,30.02,SE,135,0.0,0.0,86,0.00,,,0.03,Wunderground v.1.15,2013-05-08 18:55:00,
2013-05-08 15:00:00,65.5,61.2,30.02,SE,135,0.0,0.0,86,0.00,,,0.03,Wunderground v.1.15,2013-05-08 19:00:00,
2013-05-08 15:05:00,65.6,61.3,30.02,SE,135,0.0,0.0,86,0.00,,,0.03,Wunderground v.1.15,2013-05-08 19:05:00,
2013-05-08 15:10:00,65.6,61.0,30.02,SE,135,0.0,0.0,85,0.00,,,0.03,Wunderground v.1.15,2013-05-08 19:10:00,
2013-05-08 15:15:00,65.6,61.0,30.01,SE,135,0.0,0.0,85,0.00,,,0.03,Wunderground v.1.15,2013-05-08 19:15:00,
2013-05-08 15:20:00,65.6,61.3,30.01,SE,135,0.0,0.0,86,0.00,,,0.03,Wunderground v.1.15,2013-05-08 19:20:00,
2013-05-08 15:25:00,65.6,61.3,30.01,SE,135,0.0,0.0,86,0.00,,,0.03,Wunderground v.1.15,2013-05-08 19:25:00,
2013-05-08 15:35:00,65.5,61.9,30.00,SE,135,0.0,0.0,88,0.13,,,0.05,Wunderground v.1.15,2013-05-08 19:35:00,
2013-05-08 15:40:00,65.2,61.6,30.00,SE,135,0.0,0.0,88,0.08,,,0.05,Wunderground v.1.15,2013-05-08 19:40:00,
2013-05-08 15:45:00,64.8,61.5,30.00,SE,135,0.0,0.0,89,0.05,,,0.05,Wunderground v.1.15,2013-05-08 19:45:00,
2013-05-08 15:50:00,64.6,61.6,30.00,SE,135,0.0,0.0,90,0.00,,,0.05,Wunderground v.1.15,2013-05-08 19:50:00,
2013-05-08 15:55:00,64.5,61.8,30.00,SE,135,0.0,0.0,91,0.00,,,0.05,Wunderground v.1.15,2013-05-08 19:55:00,
2013-05-08 16:00:00,64.3,61.6,30.00,SE,135,0.0,0.0,91,0.00,,,0.06,Wunderground v.1.15,2013-05-08 20:00:00,
2013-05-08 16:05:00,64.2,61.8,30.01,SE,135,0.0,0.0,92,0.20,,,0.07,Wunderground v.1.15,2013-05-08 20:05:00,
2013-05-08 16:15:00,64.2,62.1,30.01,SE,135,0.0,0.0,93,0.05,,,0.08,Wunderground v.1.15,2013-05-08 20:15:00,
2013-05-08 16:20:00,64.4,62.6,30.01,SE,135,0.0,0.0,94,0.05,,,0.08,Wunderground v.1.15,2013-05-08 20:20:00,
2013-05-08 16:25:00,64.6,62.8,30.01,SE,135,0.0,0.0,94,0.05,,,0.08,Wunderground v.1.15,2013-05-08 20:25:00,
2013-05-08 16:30:00,64.7,62.9,30.01,NE,42,0.0,1.0,94,0.04,,,0.08,Wunderground v.1.15,2013-05-08 20:30:00,
2013-05-08 16:35:00,64.5,62.4,30.01,SSE,155,0.0,1.0,93,0.00,,,0.08,Wunderground v.1.15,2013-05-08 20:35:00,
2013-05-08 16:40:00,64.1,61.7,30.01,ESE,106,0.0,0.0,92,0.00,,,0.09,Wunderground v.1.15,2013-05-08 20:40:00,
2013-05-08 16:50:00,63.2,60.8,30.01,NE,44,1.0,1.0,92,0.00,,,0.09,Wunderground v.1.15,2013-05-08 20:50:00,
2013-05-08 16:55:00,63.2,61.1,30.00,NE,45,0.0,1.0,93,0.00,,,0.09,Wunderground v.1.15,2013-05-08 20:55:00,
2013-05-08 17:00:00,63.3,61.5,30.00,NE,45,0.0,0.0,94,0.00,,,0.10,Wunderground v.1.15,2013-05-08 21:00:00,
2013-05-08 17:05:00,63.5,61.7,30.00,NE,45,0.0,0.0,94,0.00,,,0.10,Wunderground v.1.15,2013-05-08 21:05:00,
2013-05-08 17:10:00,63.6,61.8,30.00,ENE,65,0.0,0.0,94,0.00,,,0.10,Wunderground v.1.15,2013-05-08 21:10:00,
2013-05-08 17:15:00,63.7,61.9,30.00,ENE,65,0.0,0.0,94,0.00,,,0.10,Wunderground v.1.15,2013-05-08 21:15:00,
2013-05-08 17:20:00,63.9,62.1,30.00,ENE,65,0.0,0.0,94,0.00,,,0.10,Wunderground v.1.15,2013-05-08 21:20:00,
2013-05-08 17:30:00,64.6,63.1,30.00,ENE,65,0.0,0.0,95,0.00,,,0.10,Wunderground v.1.15,2013-05-08 21:30:00,
2013-05-08 17:35:00,64.8,63.0,29.99,ENE,65,0.0,0.0,94,0.00,,,0.10,Wunderground v.1.15,2013-05-08 21:35:00,
2013-05-08 17:40:00,64.8,62.7,29.99,ENE,65,0.0,0.0,93,0.00,,,0.10,Wunderground v.1.15,2013-05-08 21:40:00,
2013-05-08 17:45:00,64.8,62.7,29.99,ENE,65,0.0,0.0,93,0.00,,,0.10,Wunderground v.1.15,2013-05-08 21:45:00,
2013-05-08 17:50:00,64.8,62.7,29.99,ENE,65,0.0,0.0,93,0.00,,,0.10,Wunderground v.1.15,2013-05-08 21:50:00,
2013-05-08 17:55:00,64.8,62.7,29.98,ENE,65,0.0,0.0,93,0.00,,,0.10,Wunderground v.1.15,2013-05-08 21:55:00,
2013-05-08 18:00:00,64.8,62.4,29.98,NE,53,0.0,0.0,92,0.00,,,0.10,Wunderground v.1.15,2013-05-08 22:00:00,
2013-05-08 18:05:00,64.7,62.3,29.98,NE,53,0.0,0.0,92,0.00,,,0.10,Wunderground v.1.15,2013-05-08 22:05:00,
2013-05-08 18:15:00,64.5,62.1,29.98,NE,53,0.0,0.0,92,0.00,,,0.10,Wunderground v.1.15,2013-05-08 22:15:00,
2013-05-08 18:20:00,64.5,62.1,29.97,East,97,0.0,0.0,92,0.00,,,0.10,Wunderground v.1.15,2013-05-08 22:20:00,
2013-05-08 18:25:00,64.5,62.1,29.98,East,92,0.0,0.0,92,0.00,,,0.10,Wunderground v.1.15,2013-05-08 22:25:00,
2013-05-08 18:30:00,64.5,61.8,29.98,East,91,0.0,0.0,91,0.00,,,0.10,Wunderground v.1.15,2013-05-08 22:30:00,
2013-05-08 18:40:00,64.4,62.0,29.97,East,91,0.0,0.0,92,0.00,,,0.10,Wunderground v.1.15,2013-05-08 22:40:00,
2013-05-08 18:50:00,64.1,61.7,29.97,SE,130,0.0,0.0,92,0.00,,,0.10,Wunderground v.1.15,2013-05-08 22:50:00,
2013-05-08 18:55:00,64.0,61.9,29.97,SE,130,0.0,0.0,93,0.00,,,0.10,Wunderground v.1.15,2013-05-08 22:55:00,
2013-05-08 19:00:00,63.9,61.8,29.97,SE,130,0.0,0.0,93,0.00,,,0.10,Wunderground v.1.15,2013-05-08 23:00:00,
2013-05-08 19:05:00,63.6,61.2,29.97,East,79,0.0,1.0,92,0.00,,,0.10,Wunderground v.1.15,2013-05-08 23:05:00,
2013-05-08 19:10:00,63.3,61.2,29.98,South,176,1.0,3.0,93,0.00,,,0.10,Wunderground v.1.15,2013-05-08 23:10:00,
2013-05-08 19:15:00,63.2,61.1,29.98,South,176,1.0,3.0,93,0.00,,,0.10,Wunderground v.1.15,2013-05-08 23:15:00,
2013-05-08 19:25:00,63.2,61.1,29.98,South,176,0.0,0.0,93,0.00,,,0.10,Wunderground v.1.15,2013-05-08 23:25:00,
2013-05-08 19:30:00,63.2,61.1,29.98,South,176,0.0,0.0,93,0.00,,,0.10,Wunderground v.1.15,2013-05-08 23:30:00,
2013-05-08 19:35:00,63.2,61.1,29.98,South,176,0.0,0.0,93,0.00,,,0.10,Wunderground v.1.15,2013-05-08 23:35:00,
2013-05-08 19:40:00,63.1,61.0,29.98,South,176,0.0,0.0,93,0.00,,,0.10,Wunderground v.1.15,2013-05-08 23:40:00,
2013-05-08 19:45:00,62.9,60.8,29.98,South,172,0.0,0.0,93,0.00,,,0.10,Wunderground v.1.15,2013-05-08 23:45:00,
2013-05-08 19:50:00,62.8,60.7,29.98,South,172,0.0,0.0,93,0.00,,,0.10,Wunderground v.1.15,2013-05-08 23:50:00,
2013-05-08 19:55:00,62.6,60.5,29.98,South,172,0.0,0.0,93,0.00,,,0.10,Wunderground v.1.15,2013-05-08 23:55:00,
2013-05-08 20:05:00,62.4,60.3,29.99,SSE,159,0.0,0.0,93,0.00,,,0.10,Wunderground v.1.15,2013-05-09 00:05:00,
2013-05-08 20:10:00,62.3,60.2,29.98,SSE,159,0.0,0.0,93,0.00,,,0.10,Wunderground v.1.15,2013-05-09 00:10:00,
2013-05-08 20:15:00,62.1,60.1,29.98,SSE,159,0.0,0.0,93,0.00,,,0.10,Wunderground v.1.15,2013-05-09 00:15:00,
2013-05-08 20:20:00,62.0,60.0,29.98,SSE,159,0.0,0.0,93,0.00,,,0.10,Wunderground v.1.15,2013-05-09 00:20:00,
2013-05-08 20:25:00,61.6,59.6,29.99,SE,140,0.0,0.0,93,0.00,,,0.10,Wunderground v.1.15,2013-05-09 00:25:00,
2013-05-08 20:30:00,61.3,59.3,29.99,SE,138,0.0,0.0,93,0.00,,,0.10,Wunderground v.1.15,2013-05-09 00:30:00,
2013-05-08 20:40:00,60.8,58.8,30.00,ESE,103,0.0,0.0,93,0.00,,,0.10,Wunderground v.1.15,2013-05-09 00:40:00,
2013-05-08 20:45:00,60.6,58.6,29.99,SSW,198,0.0,0.0,93,0.00,,,0.10,Wunderground v.1.15,2013-05-09 00:45:00,
2013-05-08 20:50:00,60.3,58.3,30.00,South,178,0.0,0.0,93,0.00,,,0.10,Wunderground v.1.15,2013-05-09 00:50:00,
2013-05-08 20:55:00,60.0,58.0,30.00,SE,125,0.0,0.0,93,0.00,,,0.10,Wunderground v.1.15,2013-05-09 00:55:00,
2013-05-08 21:00:00,59.9,57.9,30.00,SE,126,0.0,0.0,93,0.00,,,0.10,Wunderground v.1.15,2013-05-09 01:00:00,
2013-05-08 21:05:00,59.7,57.7,30.00,SE,144,0.0,0.0,93,0.00,,,0.10,Wunderground v.1.15,2013-05-09 01:05:00,
2013-05-08 21:10:00,59.5,57.5,30.00,SSE,148,0.0,0.0,93,0.00,,,0.10,Wunderground v.1.15,2013-05-09 01:10:00,
2013-05-08 21:20:00,59.2,57.2,30.00,SE,138,0.0,2.0,93,0.00,,,0.10,Wunderground v.1.15,2013-05-09 01:20:00,
2013-05-08 21:25:00,59.1,57.4,30.00,ESE,119,0.0,2.0,94,0.00,,,0.10,Wunderground v.1.15,2013-05-09 01:25:00,
2013-05-08 21:30:00,59.0,57.3,30.00,ESE,119,0.0,0.0,94,0.00,,,0.10,Wunderground v.1.15,2013-05-09 01:30:00,
2013-05-08 21:35:00,58.9,57.2,30.01,ESE,119,0.0,0.0,94,0.00,,,0.10,Wunderground v.1.15,2013-05-09 01:35:00,
2013-05-08 21:40:00,58.7,57.0,30.01,ESE,119,0.0,0.0,94,0.00,,,0.10,Wunderground v.1.15,2013-05-09 01:40:00,
2013-05-08 21:45:00,58.6,56.9,30.01,ESE,119,0.0,0.0,94,0.00,,,0.10,Wunderground v.1.15,2013-05-09 01:45:00,
2013-05-08 21:50:00,58.4,56.7,30.01,ESE,119,0.0,0.0,94,0.00,,,0.10,Wunderground v.1.15,2013-05-09 01:50:00,
2013-05-08 22:00:00,58.2,56.5,30.01,ESE,119,0.0,0.0,94,0.00,,,0.10,Wunderground v.1.15,2013-05-09 02:00:00,
2013-05-08 22:05:00,58.3,56.9,30.01,ESE,119,0.0,0.0,95,0.00,,,0.10,Wunderground v.1.15,2013-05-09 02:05:00,
2013-05-08 22:10:00,58.3,56.9,30.01,SE,138,0.0,0.0,95,0.00,,,0.10,Wunderground v.1.15,2013-05-09 02:10:00,
2013-05-08 22:15:00,58.3,56.9,30.01,SSE,150,0.0,0.0,95,0.00,,,0.10,Wunderground v.1.15,2013-05-09 02:15:00,
2013-05-08 22:20:00,58.4,57.0,30.02,SE,134,0.0,0.0,95,0.00,,,0.10,Wunderground v.1.15,2013-05-09 02:20:00,
2013-05-08 22:25:00,58.5,57.1,30.02,ESE,121,0.0,0.0,95,0.00,,,0.10,Wunderground v.1.15,2013-05-09 02:25:00,
2013-05-08 22:35:00,58.6,57.2,30.01,ESE,121,0.0,0.0,95,0.00,,,0.10,Wunderground v.1.15,2013-05-09 02:35:00,
2013-05-08 22:40:00,58.6,57.2,30.01,ESE,121,0.0,0.0,95,0.00,,,0.10,Wunderground v.1.15,2013-05-09 02:40:00,
2013-05-08 22:45:00,58.7,57.3,30.02,ESE,121,0.0,0.0,95,0.00,,,0.10,Wunderground v.1.15,2013-05-09 02:45:00,
2013-05-08 22:50:00,58.7,57.3,30.02,ESE,121,0.0,0.0,95,0.00,,,0.10,Wunderground v.1.15,2013-05-09 02:50:00,
2013-05-08 22:55:00,58.8,57.4,30.02,ESE,121,0.0,0.0,95,0.00,,,0.10,Wunderground v.1.15,2013-05-09 02:55:00,
2013-05-08 23:00:00,58.8,57.4,30.02,ESE,111,0.0,0.0,95,0.00,,,0.10,Wunderground v.1.15,2013-05-09 03:00:00,
2013-05-08 23:10:00,58.8,57.4,30.01,SE,144,0.0,0.0,95,0.00,,,0.10,Wunderground v.1.15,2013-05-09 03:10:00,
2013-05-08 23:15:00,58.7,57.3,30.01,SE,146,0.0,0.0,95,0.00,,,0.10,Wunderground v.1.15,2013-05-09 03:15:00,
2013-05-08 23:20:00,58.7,57.3,30.01,ESE,109,0.0,0.0,95,0.00,,,0.10,Wunderground v.1.15,2013-05-09 03:20:00,
2013-05-08 23:25:00,58.6,57.2,30.01,ESE,122,0.0,0.0,95,0.00,,,0.10,Wunderground v.1.15,2013-05-09 03:25:00,
2013-05-08 23:30:00,58.4,57.0,30.01,East,94,0.0,1.0,95,0.00,,,0.10,Wunderground v.1.15,2013-05-09 03:30:00,
2013-05-08 23:35:00,58.2,56.8,30.01,SSW,193,0.0,1.0,95,0.00,,,0.10,Wunderground v.1.15,2013-05-09 03:35:00,
2013-05-08 23:40:00,58.0,56.6,30.01,SE,142,0.0,0.0,95,0.00,,,0.10,Wunderground v.1.15,2013-05-09 03:40:00,
2013-05-08 23:50:00,57.8,56.4,30.01,SSE,157,1.0,1.0,95,0.00,,,0.10,Wunderground v.1.15,2013-05-09 03:50:00,
2013-05-08 23:55:00,57.7,56.3,30.00,SSE,166,1.0,1.0,95,0.00,,,0.10,Wunderground v.1.15,2013-05-09 03:55:00,